createdAt,value
2018-11-11T00:01:34.699Z,96604.13
2018-11-11T00:04:05.692Z,96598.98
2018-11-11T00:06:36.872Z,96604.98
2018-11-11T00:09:10.271Z,96607.14
2018-11-11T00:11:41.539Z,96596.86
2018-11-11T00:14:12.755Z,96592.52
2018-11-11T00:16:44.074Z,96591.72
2018-11-11T00:19:15.345Z,96592.55
2018-11-11T00:21:46.305Z,96590.44
2018-11-11T00:24:17.222Z,96589.56
2018-11-11T00:26:48.200Z,96589.53
2018-11-11T00:29:19.464Z,96596.38
2018-11-11T00:31:50.406Z,96602.36
2018-11-11T00:34:21.320Z,96610.52
2018-11-11T00:36:52.617Z,96610.55
2018-11-11T00:39:23.984Z,96607.56
2018-11-11T00:41:54.797Z,96601.55
2018-11-11T00:44:26.030Z,96605.83
2018-11-11T00:46:57.223Z,96616.11
2018-11-11T00:49:28.462Z,96621.66
2018-11-11T00:51:59.424Z,96629.83
2018-11-11T00:54:30.320Z,96635.42
2018-11-11T00:57:01.547Z,96626.88
2018-11-11T00:59:33.016Z,96637.16
2018-11-11T01:02:04.069Z,96637.60
2018-11-11T01:04:35.355Z,96637.60
2018-11-11T01:07:06.812Z,96628.57
2018-11-11T01:09:37.782Z,96613.66
2018-11-11T01:12:09.351Z,96611.89
2018-11-11T01:14:40.459Z,96618.70
2018-11-11T01:17:11.421Z,96623.85
2018-11-11T01:19:42.633Z,96647.89
2018-11-11T01:22:13.558Z,96685.52
2018-11-11T01:24:44.448Z,96685.48
2018-11-11T01:27:15.432Z,96675.65
2018-11-11T01:29:46.618Z,96678.70
2018-11-11T01:32:17.530Z,96703.09
2018-11-11T01:34:48.722Z,96695.83
2018-11-11T01:37:19.667Z,96702.64
2018-11-11T01:39:50.528Z,96698.78
2018-11-11T01:42:21.592Z,96700.48
2018-11-11T01:44:52.707Z,96692.39
2018-11-11T01:47:24.032Z,96688.61
2018-11-11T01:49:55.719Z,96695.55
2018-11-11T01:52:26.580Z,96685.72
2018-11-11T01:54:57.591Z,96696.00
2018-11-11T01:57:28.847Z,96671.55
2018-11-11T01:59:59.884Z,96689.02
2018-11-11T02:02:30.758Z,96656.44
2018-11-11T02:05:01.925Z,96651.30
2018-11-11T02:07:32.836Z,96651.71
2018-11-11T02:10:03.742Z,96640.17
2018-11-11T02:12:34.687Z,96698.82
2018-11-11T02:15:05.696Z,96697.50
2018-11-11T02:17:36.721Z,96712.51
2018-11-11T02:20:21.847Z,96710.28
2018-11-11T02:22:52.930Z,96697.01
2018-11-11T02:25:23.936Z,96692.28
2018-11-11T02:27:55.235Z,96683.70
2018-11-11T02:30:26.171Z,96694.44
2018-11-11T02:32:57.083Z,96690.13
2018-11-11T02:35:27.978Z,96735.52
2018-11-11T02:37:58.876Z,96745.76
2018-11-11T02:40:29.822Z,96756.00
2018-11-11T02:43:00.698Z,96751.72
2018-11-11T02:45:31.981Z,96741.91
2018-11-11T02:48:21.834Z,96741.95
2018-11-11T02:50:52.692Z,96743.64
2018-11-11T02:53:23.514Z,96750.45
2018-11-11T02:55:54.610Z,96758.11
2018-11-11T02:58:25.450Z,96768.34
2018-11-11T03:00:56.574Z,96779.45
2018-11-11T03:03:28.225Z,96763.62
2018-11-11T03:05:59.159Z,96757.66
2018-11-11T03:08:29.976Z,96758.98
2018-11-11T03:11:00.878Z,96757.74
2018-11-11T03:13:31.703Z,96745.39
2018-11-11T03:16:02.607Z,96750.57
2018-11-11T03:18:33.408Z,96764.22
2018-11-11T03:21:04.220Z,96770.17
2018-11-11T03:23:35.045Z,96778.70
2018-11-11T03:26:06.060Z,96767.14
2018-11-11T03:28:36.894Z,96762.47
2018-11-11T03:31:07.724Z,96763.34
2018-11-11T03:33:38.657Z,96755.63
2018-11-11T03:36:09.513Z,96763.34
2018-11-11T03:38:40.725Z,96766.73
2018-11-11T03:41:11.546Z,96770.67
2018-11-11T03:43:42.748Z,96766.41
2018-11-11T03:46:13.580Z,96764.67
2018-11-11T03:48:44.446Z,96764.66
2018-11-11T03:51:15.358Z,96766.83
2018-11-11T03:53:46.188Z,96755.67
2018-11-11T03:56:17.015Z,96754.42
2018-11-11T03:58:47.981Z,96756.55
2018-11-11T04:01:18.792Z,96753.97
2018-11-11T04:03:49.628Z,96750.16
2018-11-11T04:06:20.454Z,96734.31
2018-11-11T04:08:51.275Z,96724.04
2018-11-11T04:11:22.113Z,96735.61
2018-11-11T04:13:53.029Z,96729.18
2018-11-11T04:16:23.850Z,96730.00
2018-11-11T04:18:55.146Z,96733.83
2018-11-11T04:21:26.248Z,96736.84
2018-11-11T04:23:57.074Z,96739.42
2018-11-11T04:26:28.196Z,96739.42
2018-11-11T04:28:59.050Z,96737.30
2018-11-11T04:31:29.923Z,96738.59
2018-11-11T04:34:00.746Z,96736.85
2018-11-11T04:36:32.139Z,96730.47
2018-11-11T04:39:03.363Z,96731.33
2018-11-11T04:41:34.151Z,96722.30
2018-11-11T04:44:05.325Z,96713.27
2018-11-11T04:46:36.428Z,96730.42
2018-11-11T04:49:07.375Z,96738.55
2018-11-11T04:51:38.132Z,96748.83
2018-11-11T04:54:09.377Z,96749.66
2018-11-11T04:56:40.251Z,96745.80
2018-11-11T04:59:11.133Z,96753.93
2018-11-11T05:01:42.050Z,96754.34
2018-11-11T05:04:13.043Z,96764.22
2018-11-11T05:06:43.919Z,96767.23
2018-11-11T05:09:14.856Z,96764.63
2018-11-11T05:11:45.702Z,96758.61
2018-11-11T05:14:16.548Z,96747.95
2018-11-11T05:16:47.771Z,96753.06
2018-11-11T05:19:19.009Z,96748.33
2018-11-11T05:21:50.252Z,96741.08
2018-11-11T05:24:21.045Z,96743.19
2018-11-11T05:26:51.884Z,96748.33
2018-11-11T05:29:23.006Z,96761.59
2018-11-11T05:31:54.172Z,96755.63
2018-11-11T05:34:25.028Z,96770.17
2018-11-11T05:36:55.858Z,96766.73
2018-11-11T05:39:26.692Z,96764.20
2018-11-11T05:41:57.513Z,96761.18
2018-11-11T05:44:28.347Z,96769.76
2018-11-11T05:46:59.433Z,96781.28
2018-11-11T05:49:30.544Z,96777.84
2018-11-11T05:52:01.391Z,96777.02
2018-11-11T05:54:32.272Z,96772.70
2018-11-11T05:57:03.094Z,96772.70
2018-11-11T05:59:33.932Z,96806.16
2018-11-11T06:02:04.779Z,96805.38
2018-11-11T06:04:35.853Z,96806.63
2018-11-11T06:07:07.008Z,96811.34
2018-11-11T06:09:37.850Z,96804.00
2018-11-11T06:12:08.807Z,96792.85
2018-11-11T06:14:39.636Z,96791.55
2018-11-11T06:17:10.496Z,96797.58
2018-11-11T06:19:41.395Z,96804.86
2018-11-11T06:22:12.299Z,96789.86
2018-11-11T06:24:43.202Z,96800.59
2018-11-11T06:27:14.046Z,96798.86
2018-11-11T06:29:44.849Z,96796.28
2018-11-11T06:32:16.357Z,96801.84
2018-11-11T06:34:47.274Z,96797.12
2018-11-11T06:37:18.088Z,96781.69
2018-11-11T06:39:48.932Z,96788.53
2018-11-11T06:42:19.742Z,96784.72
2018-11-11T06:44:50.586Z,96774.81
2018-11-11T06:47:21.749Z,96763.25
2018-11-11T06:49:52.594Z,96786.00
2018-11-11T06:52:23.410Z,96789.45
2018-11-11T06:54:54.513Z,96792.84
2018-11-11T06:57:25.347Z,96800.56
2018-11-11T06:59:56.862Z,96807.86
2018-11-11T07:02:39.963Z,96796.74
2018-11-11T07:05:11.076Z,96791.16
2018-11-11T07:07:41.887Z,96798.44
2018-11-11T07:10:12.710Z,96795.00
2018-11-11T07:12:43.558Z,96803.62
2018-11-11T07:15:14.405Z,96811.72
2018-11-11T07:17:45.229Z,96797.98
2018-11-11T07:20:16.307Z,96792.02
2018-11-11T07:22:47.151Z,96790.27
2018-11-11T07:25:17.984Z,96802.25
2018-11-11T07:27:48.817Z,96808.67
2018-11-11T07:30:19.642Z,96807.77
2018-11-11T07:32:50.474Z,96824.52
2018-11-11T07:35:21.317Z,96838.64
2018-11-11T07:37:52.277Z,96845.48
2018-11-11T07:40:23.132Z,96846.30
2018-11-11T07:42:53.974Z,96860.94
2018-11-11T07:45:24.797Z,96871.23
2018-11-11T07:47:55.687Z,96871.23
2018-11-11T07:50:26.472Z,96872.98
2018-11-11T07:52:57.324Z,96878.17
2018-11-11T07:55:28.178Z,96886.70
2018-11-11T07:58:01.909Z,96880.80
2018-11-11T08:00:32.760Z,96899.66
2018-11-11T08:03:03.913Z,96912.04
2018-11-11T08:05:34.902Z,96917.60
2018-11-11T08:08:05.730Z,96914.61
2018-11-11T08:11:30.705Z,96925.31
2018-11-11T08:14:01.597Z,96928.39
2018-11-11T08:16:32.486Z,96925.72
2018-11-11T08:19:03.350Z,96914.16
2018-11-11T08:21:34.611Z,96894.00
2018-11-11T08:24:06.124Z,96890.97
2018-11-11T08:26:36.965Z,96899.14
2018-11-11T08:29:07.882Z,96920.16
2018-11-11T08:31:38.733Z,96909.48
2018-11-11T08:34:09.571Z,96892.36
2018-11-11T08:36:40.405Z,96930.61
2018-11-11T08:39:13.243Z,96945.27
2018-11-11T08:41:45.114Z,96933.23
2018-11-11T08:44:15.972Z,96938.07
2018-11-11T08:46:47.089Z,96944.58
2018-11-11T08:49:17.946Z,96967.72
2018-11-11T08:51:48.878Z,96990.00
2018-11-11T08:54:19.806Z,97006.36
2018-11-11T08:56:50.679Z,97033.00
2018-11-11T08:59:21.589Z,97078.03
2018-11-11T09:01:52.557Z,97109.61
2018-11-11T09:04:23.484Z,97118.95
2018-11-11T09:06:54.489Z,97107.53
2018-11-11T09:09:25.504Z,97097.33
2018-11-11T09:11:56.461Z,97104.75
2018-11-11T09:14:27.341Z,97090.19
2018-11-11T09:16:58.273Z,97078.98
2018-11-11T09:19:29.444Z,97068.34
2018-11-11T09:22:00.296Z,97074.22
2018-11-11T09:24:31.181Z,97062.87
2018-11-11T09:27:02.129Z,97065.19
2018-11-11T09:29:33.147Z,97052.37
2018-11-11T09:32:04.114Z,97044.74
2018-11-11T09:34:35.358Z,97050.72
2018-11-11T09:37:06.331Z,97053.84
2018-11-11T09:39:37.208Z,97036.83
2018-11-11T09:42:08.325Z,97041.60
2018-11-11T09:44:39.264Z,97057.14
2018-11-11T09:47:10.177Z,97076.17
2018-11-11T09:49:41.085Z,97069.77
2018-11-11T09:52:12.081Z,97055.67
2018-11-11T09:54:43.014Z,97048.91
2018-11-11T09:57:20.683Z,97059.22
2018-11-11T09:59:51.707Z,97051.61
2018-11-11T10:02:22.846Z,97045.95
2018-11-11T10:05:06.355Z,97048.98
2018-11-11T10:07:42.009Z,97060.86
2018-11-11T10:10:34.238Z,97074.39
2018-11-11T10:13:14.686Z,97085.11
2018-11-11T10:16:04.195Z,97101.72
2018-11-11T10:18:39.002Z,97089.34
2018-11-11T10:21:37.142Z,97083.81
2018-11-11T10:24:23.989Z,97081.70
2018-11-11T10:26:58.827Z,97064.12
2018-11-11T10:29:34.310Z,97068.59
2018-11-11T10:33:21.252Z,97062.47
2018-11-11T10:35:55.556Z,97054.09
2018-11-11T10:38:54.083Z,97039.44
2018-11-11T10:41:31.946Z,97044.50
2018-11-11T10:44:15.893Z,97046.81
2018-11-11T10:46:58.250Z,97041.49
2018-11-11T10:49:32.022Z,97047.83
2018-11-11T10:52:02.943Z,97033.48
2018-11-11T10:54:33.922Z,97038.72
2018-11-11T10:57:04.745Z,97041.27
2018-11-11T10:59:35.666Z,97042.05
2018-11-11T11:02:28.346Z,97039.17
2018-11-11T11:05:12.386Z,97040.07
2018-11-11T11:07:43.723Z,97030.17
2018-11-11T11:10:14.618Z,97024.39
2018-11-11T11:12:45.535Z,97017.23
2018-11-11T11:15:16.645Z,97008.68
2018-11-11T11:17:47.503Z,96992.77
2018-11-11T11:20:18.398Z,96990.16
2018-11-11T11:22:49.314Z,96977.23
2018-11-11T11:25:20.172Z,96975.53
2018-11-11T11:27:51.174Z,96976.83
2018-11-11T11:30:22.147Z,96969.92
2018-11-11T11:32:53.095Z,96973.79
2018-11-11T11:35:24.026Z,96975.52
2018-11-11T11:37:54.939Z,96966.50
2018-11-11T11:40:25.909Z,96978.12
2018-11-11T11:42:57.155Z,96966.05
2018-11-11T11:45:28.105Z,96956.11
2018-11-11T11:47:59.018Z,96958.69
2018-11-11T11:50:30.434Z,96962.14
2018-11-11T11:53:01.306Z,96960.02
2018-11-11T11:55:32.580Z,96954.40
2018-11-11T11:58:22.947Z,96970.36
2018-11-11T12:00:54.193Z,96992.33
2018-11-11T12:03:25.218Z,97000.53
2018-11-11T12:05:56.117Z,97006.12
2018-11-11T12:08:27.047Z,96998.80
2018-11-11T12:10:57.976Z,97000.48
2018-11-11T12:13:28.933Z,97015.95
2018-11-11T12:15:59.835Z,97030.61
2018-11-11T12:18:30.777Z,97022.75
2018-11-11T12:21:01.711Z,97026.60
2018-11-11T12:23:32.889Z,97023.98
2018-11-11T12:26:03.796Z,97023.06
2018-11-11T12:28:34.797Z,97018.88
2018-11-11T12:31:05.788Z,97027.64
2018-11-11T12:33:36.660Z,97010.34
2018-11-11T12:36:08.222Z,97021.48
2018-11-11T12:38:39.208Z,97013.92
2018-11-11T12:41:10.139Z,97021.92
2018-11-11T12:43:41.012Z,97007.34
2018-11-11T12:46:11.890Z,96995.66
2018-11-11T12:48:42.793Z,96995.16
2018-11-11T12:51:13.726Z,96977.32
2018-11-11T12:53:44.612Z,96985.39
2018-11-11T12:56:15.878Z,96987.09
2018-11-11T12:58:46.755Z,96975.68
2018-11-11T13:01:17.745Z,96970.61
2018-11-11T13:03:48.909Z,96972.25
2018-11-11T13:06:19.794Z,96976.35
2018-11-11T13:08:50.785Z,96979.55
2018-11-11T13:11:21.785Z,96964.49
2018-11-11T13:13:54.945Z,96956.63
2018-11-11T13:16:25.859Z,96948.99
2018-11-11T13:18:56.878Z,96969.26
2018-11-11T13:21:28.623Z,96975.18
2018-11-11T13:23:59.588Z,96975.13
2018-11-11T13:26:30.544Z,96978.39
2018-11-11T13:29:01.467Z,96977.92
2018-11-11T13:31:32.454Z,96988.72
2018-11-11T13:34:03.404Z,96991.14
2018-11-11T13:36:34.348Z,96999.00
2018-11-11T13:39:07.535Z,97001.84
2018-11-11T13:41:38.535Z,97008.92
2018-11-11T13:44:10.038Z,97002.96
2018-11-11T13:46:41.337Z,97002.58
2018-11-11T13:49:12.259Z,97011.23
2018-11-11T13:51:43.490Z,97010.81
2018-11-11T13:54:14.375Z,97023.35
2018-11-11T13:56:45.352Z,97026.78
2018-11-11T13:59:17.322Z,97029.35
2018-11-11T14:01:48.304Z,97031.78
2018-11-11T14:04:19.173Z,97027.83
2018-11-11T14:06:50.139Z,97038.67
2018-11-11T14:09:21.034Z,97036.61
2018-11-11T14:11:51.931Z,97027.66
2018-11-11T14:14:22.929Z,97030.42
2018-11-11T14:16:54.254Z,97038.15
2018-11-11T14:19:25.307Z,97047.84
2018-11-11T14:21:56.153Z,97045.31
2018-11-11T14:24:27.133Z,97041.44
2018-11-11T14:26:58.847Z,97039.30
2018-11-11T14:29:29.621Z,97049.64
2018-11-11T14:32:00.556Z,97045.78
2018-11-11T14:34:31.600Z,97053.09
2018-11-11T14:37:02.774Z,97053.95
2018-11-11T14:39:33.790Z,97050.91
2018-11-11T14:42:04.867Z,97038.80
2018-11-11T14:44:35.742Z,97049.58
2018-11-11T14:47:06.821Z,97053.27
2018-11-11T14:49:37.779Z,97042.73
2018-11-11T14:52:08.896Z,97059.33
2018-11-11T14:54:39.800Z,97070.70
2018-11-11T14:57:10.642Z,97084.14
2018-11-11T14:59:41.867Z,97081.50
2018-11-11T15:02:12.783Z,97087.04
2018-11-11T15:04:43.720Z,97084.00
2018-11-11T15:07:14.737Z,97080.12
2018-11-11T15:09:45.924Z,97073.21
2018-11-11T15:12:16.912Z,97072.78
2018-11-11T15:14:47.992Z,97074.45
2018-11-11T15:17:18.989Z,97065.84
2018-11-11T15:19:49.992Z,97050.23
2018-11-11T15:22:21.013Z,97060.03
2018-11-11T15:24:52.018Z,97059.53
2018-11-11T15:27:23.201Z,97078.30
2018-11-11T15:29:54.180Z,97086.81
2018-11-11T15:32:25.165Z,97086.63
2018-11-11T15:34:56.002Z,97080.91
2018-11-11T15:37:27.568Z,97084.73
2018-11-11T15:39:58.481Z,97083.36
2018-11-11T15:42:29.684Z,97085.98
2018-11-11T15:45:00.607Z,97083.89
2018-11-11T15:47:31.573Z,97079.08
2018-11-11T15:50:02.611Z,97076.92
2018-11-11T15:52:33.626Z,97094.36
2018-11-11T15:55:04.560Z,97096.39
2018-11-11T15:57:35.523Z,97091.55
2018-11-11T16:00:08.833Z,97099.63
2018-11-11T16:02:40.301Z,97099.11
2018-11-11T16:05:12.245Z,97096.36
2018-11-11T16:07:43.845Z,97100.94
2018-11-11T16:10:16.610Z,97096.09
2018-11-11T16:12:47.765Z,97088.73
2018-11-11T16:15:21.709Z,97083.34
2018-11-11T16:17:54.040Z,97069.66
2018-11-11T16:20:26.174Z,97063.38
2018-11-11T16:22:58.081Z,97062.98
2018-11-11T16:25:29.620Z,97062.66
2018-11-11T16:28:00.459Z,97067.87
2018-11-11T16:30:32.592Z,97067.86
2018-11-11T16:33:03.905Z,97060.14
2018-11-11T16:35:34.964Z,97059.87
2018-11-11T16:38:06.401Z,97074.39
2018-11-11T16:40:38.185Z,97088.92
2018-11-11T16:43:09.118Z,97096.70
2018-11-11T16:45:40.043Z,97099.73
2018-11-11T16:48:10.978Z,97094.07
2018-11-11T16:50:42.342Z,97100.96
2018-11-11T16:53:13.431Z,97097.11
2018-11-11T16:55:44.267Z,97095.41
2018-11-11T16:58:15.186Z,97090.63
2018-11-11T17:00:46.127Z,97092.32
2018-11-11T17:03:17.052Z,97089.28
2018-11-11T17:05:47.955Z,97090.61
2018-11-11T17:08:18.854Z,97090.16
2018-11-11T17:10:49.797Z,97089.75
2018-11-11T17:13:21.339Z,97106.93
2018-11-11T17:15:52.174Z,97111.62
2018-11-11T17:18:23.507Z,97121.05
2018-11-11T17:20:54.929Z,97122.64
2018-11-11T17:23:25.812Z,97135.37
2018-11-11T17:25:56.758Z,97134.45
2018-11-11T17:28:28.017Z,97142.92
2018-11-11T17:30:59.113Z,97154.02
2018-11-11T17:33:30.020Z,97159.16
2018-11-11T17:36:00.958Z,97165.47
2018-11-11T17:38:32.483Z,97174.73
2018-11-11T17:41:03.377Z,97176.73
2018-11-11T17:43:34.253Z,97184.94
2018-11-11T17:46:05.149Z,97186.63
2018-11-11T17:48:36.410Z,97183.28
2018-11-11T17:51:07.359Z,97197.97
2018-11-11T17:53:38.190Z,97193.94
2018-11-11T17:56:09.459Z,97188.23
2018-11-11T17:58:40.662Z,97189.45
2018-11-11T18:01:11.587Z,97183.38
2018-11-11T18:03:42.579Z,97187.25
2018-11-11T18:06:13.576Z,97188.39
2018-11-11T18:08:44.467Z,97186.45
2018-11-11T18:11:16.008Z,97181.30
2018-11-11T18:13:46.832Z,97176.16
2018-11-11T18:16:17.758Z,97179.09
2018-11-11T18:18:49.019Z,97170.63
2018-11-11T18:21:19.929Z,97179.21
2018-11-11T18:23:51.060Z,97174.64
2018-11-11T18:26:22.358Z,97177.86
2018-11-11T18:28:53.214Z,97176.51
2018-11-11T18:31:24.149Z,97179.88
2018-11-11T18:33:55.310Z,97176.51
2018-11-11T18:36:26.930Z,97182.06
2018-11-11T18:38:58.084Z,97192.41
2018-11-11T18:41:28.970Z,97186.93
2018-11-11T18:43:59.843Z,97192.18
2018-11-11T18:46:31.184Z,97191.13
2018-11-11T18:49:02.094Z,97197.52
2018-11-11T18:51:33.011Z,97197.13
2018-11-11T18:54:03.880Z,97201.02
2018-11-11T18:56:34.734Z,97203.80
2018-11-11T18:59:06.208Z,97196.79
2018-11-11T19:01:37.508Z,97186.19
2018-11-11T19:04:08.631Z,97175.50
2018-11-11T19:06:39.648Z,97172.05
2018-11-11T19:09:14.139Z,97180.50
2018-11-11T19:11:45.035Z,97176.08
2018-11-11T19:14:15.933Z,97167.16
2018-11-11T19:16:46.945Z,97171.91
2018-11-11T19:19:17.811Z,97175.36
2018-11-11T19:21:48.626Z,97184.78
2018-11-11T19:24:19.530Z,97174.87
2018-11-11T19:26:50.417Z,97184.62
2018-11-11T19:29:21.315Z,97182.84
2018-11-11T19:31:52.278Z,97186.16
2018-11-11T19:34:23.196Z,97187.44
2018-11-11T19:36:54.132Z,97189.18
2018-11-11T19:39:25.028Z,97197.69
2018-11-11T19:41:56.333Z,97201.47
2018-11-11T19:44:27.243Z,97199.72
2018-11-11T19:46:58.207Z,97209.97
2018-11-11T19:49:29.390Z,97213.42
2018-11-11T19:52:00.357Z,97207.34
2018-11-11T19:54:31.307Z,97218.80
2018-11-11T19:57:02.746Z,97226.80
2018-11-11T19:59:33.603Z,97223.67
2018-11-11T20:02:04.482Z,97229.93
2018-11-11T20:04:35.355Z,97225.19
2018-11-11T20:07:06.369Z,97224.08
2018-11-11T20:09:37.248Z,97229.93
2018-11-11T20:12:08.244Z,97235.80
2018-11-11T20:14:39.520Z,97230.82
2018-11-11T20:17:10.435Z,97236.42
2018-11-11T20:19:41.367Z,97233.96
2018-11-11T20:22:12.201Z,97237.42
2018-11-11T20:24:43.425Z,97241.16
2018-11-11T20:27:14.394Z,97239.42
2018-11-11T20:29:45.863Z,97248.45
2018-11-11T20:32:17.126Z,97256.50
2018-11-11T20:34:48.053Z,97276.28
2018-11-11T20:37:19.093Z,97279.34
2018-11-11T20:39:50.199Z,97283.57
2018-11-11T20:42:21.095Z,97287.48
2018-11-11T20:44:52.249Z,97282.64
2018-11-11T20:47:24.098Z,97285.59
2018-11-11T20:49:55.177Z,97285.89
2018-11-11T20:52:26.332Z,97276.94
2018-11-11T20:54:57.216Z,97277.81
2018-11-11T20:57:28.192Z,97276.20
2018-11-11T20:59:59.332Z,97269.47
2018-11-11T21:02:30.207Z,97269.77
2018-11-11T21:05:01.107Z,97279.39
2018-11-11T21:07:32.068Z,97281.63
2018-11-11T21:10:02.929Z,97282.08
2018-11-11T21:12:33.820Z,97279.35
2018-11-11T21:15:04.819Z,97284.36
2018-11-11T21:17:35.753Z,97279.06
2018-11-11T21:20:08.474Z,97276.12
2018-11-11T21:22:39.490Z,97276.84
2018-11-11T21:25:10.669Z,97279.79
2018-11-11T21:27:42.478Z,97275.48
2018-11-11T21:30:35.169Z,97265.92
2018-11-11T21:33:06.082Z,97263.77
2018-11-11T21:35:37.394Z,97250.44
2018-11-11T21:38:08.615Z,97253.72
2018-11-11T21:40:39.592Z,97248.60
2018-11-11T21:43:10.502Z,97261.35
2018-11-11T21:45:41.435Z,97262.31
2018-11-11T21:48:12.326Z,97265.72
2018-11-11T21:50:43.246Z,97270.47
2018-11-11T21:53:34.380Z,97279.55
2018-11-11T21:56:05.471Z,97280.80
2018-11-11T21:58:36.660Z,97284.06
2018-11-11T22:01:07.972Z,97281.56
2018-11-11T22:03:39.350Z,97284.45
2018-11-11T22:06:10.369Z,97282.52
2018-11-11T22:08:41.298Z,97289.91
2018-11-11T22:11:12.217Z,97303.80
2018-11-11T22:13:43.117Z,97301.18
2018-11-11T22:16:14.365Z,97304.42
2018-11-11T22:18:45.334Z,97301.24
2018-11-11T22:21:16.209Z,97296.25
2018-11-11T22:23:47.165Z,97301.86
2018-11-11T22:26:18.038Z,97303.14
2018-11-11T22:28:48.932Z,97309.28
2018-11-11T22:31:19.787Z,97310.19
2018-11-11T22:33:50.950Z,97308.75
2018-11-11T22:36:22.769Z,97313.20
2018-11-11T22:38:54.045Z,97312.61
2018-11-11T22:41:24.905Z,97315.95
2018-11-11T22:43:55.997Z,97318.13
2018-11-11T22:46:27.484Z,97308.94
2018-11-11T22:48:59.017Z,97304.13
2018-11-11T22:51:29.877Z,97298.80
2018-11-11T22:54:00.754Z,97289.45
2018-11-11T22:56:31.659Z,97294.89
2018-11-11T22:59:02.906Z,97303.24
2018-11-11T23:01:33.831Z,97311.56
2018-11-11T23:04:04.686Z,97310.30
2018-11-11T23:06:35.633Z,97325.38
2018-11-11T23:09:09.875Z,97325.27
2018-11-11T23:11:40.999Z,97330.66
2018-11-11T23:14:11.877Z,97322.23
2018-11-11T23:16:42.832Z,97337.97
2018-11-11T23:19:13.716Z,97329.73
2018-11-11T23:21:44.629Z,97331.23
2018-11-11T23:24:15.581Z,97329.07
2018-11-11T23:26:46.763Z,97330.72
2018-11-11T23:29:17.685Z,97335.87
2018-11-11T23:31:48.574Z,97340.37
2018-11-11T23:34:19.758Z,97339.09
2018-11-11T23:36:50.636Z,97335.55
2018-11-11T23:39:21.495Z,97338.14
2018-11-11T23:41:52.384Z,97343.00
2018-11-11T23:44:23.342Z,97342.73
2018-11-11T23:46:54.536Z,97337.62
2018-11-11T23:49:25.509Z,97338.44
2018-11-11T23:51:56.393Z,97336.27
2018-11-11T23:54:27.523Z,97337.98
2018-11-11T23:56:58.480Z,97351.07
2018-11-11T23:59:29.580Z,97342.66
